createdAt,value
2023-04-08T10:27:49.275Z,16.31
2023-04-08T10:28:35.683Z,12.95
2023-04-08T10:29:19.532Z,13.98
2023-04-08T10:30:04.487Z,10.08
2023-04-08T10:30:49.125Z,10.72
2023-04-08T10:31:38.349Z,8.39
2023-04-08T10:32:26.335Z,10.72
2023-04-08T10:33:07.222Z,8.39
2023-04-08T10:33:50.260Z,14.48
2023-04-08T10:34:34.586Z,7.88
2023-04-08T10:35:20.315Z,6.81
2023-04-08T10:36:05.244Z,11.07
2023-04-08T10:36:49.699Z,10.86
2023-04-08T10:37:34.591Z,13.05
2023-04-08T10:38:19.663Z,13.05
2023-04-08T10:39:04.523Z,13.12
2023-04-08T10:39:49.152Z,13.51
2023-04-08T10:40:35.073Z,7.84
2023-04-08T10:41:19.891Z,10.56
2023-04-08T10:42:04.879Z,13.20
2023-04-08T10:42:49.468Z,7.20
2023-04-08T10:43:37.827Z,14.91
2023-04-08T10:44:19.814Z,6.79
2023-04-08T10:45:04.687Z,10.18
2023-04-08T10:45:50.149Z,11.97
2023-04-08T10:46:38.278Z,6.91
2023-04-08T10:47:21.771Z,9.60
2023-04-08T10:48:18.854Z,12.80
2023-04-08T10:49:35.003Z,6.90
2023-04-08T10:50:21.585Z,8.44
2023-04-08T10:51:06.128Z,10.53
2023-04-08T10:51:50.781Z,12.31
2023-04-08T10:52:35.914Z,8.79
2023-04-08T10:53:20.587Z,8.56
2023-04-08T10:54:05.668Z,11.85
2023-04-08T10:54:50.493Z,9.87
2023-04-08T10:55:35.828Z,8.59
2023-04-08T10:56:21.413Z,6.05
2023-04-08T10:57:05.870Z,6.46
2023-04-08T10:57:51.224Z,4.60
2023-04-08T10:58:36.285Z,8.91
2023-04-08T10:59:22.676Z,6.15
2023-04-08T11:00:06.491Z,8.92
2023-04-08T11:00:52.356Z,3.74
2023-04-08T11:01:36.157Z,8.05
2023-04-08T11:02:21.219Z,3.74
2023-04-08T11:03:06.510Z,5.83
2023-04-08T11:05:21.396Z,6.00
2023-04-08T11:09:37.409Z,8.75
2023-04-08T11:10:30.198Z,8.25
2023-04-08T11:10:39.448Z,8.21
2023-04-08T11:12:45.253Z,3.14
2023-04-08T11:13:03.017Z,5.13
2023-04-08T11:13:39.567Z,5.85
2023-04-08T11:14:24.811Z,5.66
2023-04-08T11:15:10.189Z,8.30
2023-04-08T11:15:54.708Z,5.08
2023-04-08T11:16:42.752Z,3.82
2023-04-08T11:17:26.977Z,5.09
2023-04-08T11:18:10.024Z,7.64
2023-04-08T11:18:57.978Z,5.09
2023-04-08T11:20:25.403Z,4.00
2023-04-08T11:21:55.619Z,3.46
2023-04-08T11:22:32.802Z,4.91
2023-04-08T11:22:40.148Z,3.23
2023-04-08T11:23:34.650Z,5.27
2023-04-08T11:24:10.671Z,4.39
2023-04-08T11:24:55.655Z,4.39
2023-04-08T11:26:09.058Z,6.67
2023-04-08T11:26:26.796Z,2.98
2023-04-08T11:31:08.666Z,4.93
2023-04-08T11:35:21.217Z,5.44
2023-04-08T11:35:32.100Z,5.27
2023-04-08T11:36:19.692Z,4.65
2023-04-08T11:38:17.324Z,7.02
2023-04-08T11:41:41.052Z,4.21
2023-04-08T11:42:24.815Z,4.79
2023-04-08T11:43:06.267Z,4.56
2023-04-08T11:43:44.614Z,5.20
2023-04-08T11:44:29.260Z,4.21
2023-04-08T11:45:22.050Z,5.97
2023-04-08T11:46:11.810Z,5.97
2023-04-08T11:46:53.815Z,7.37
2023-04-08T11:48:15.160Z,5.97
2023-04-08T11:49:04.389Z,4.91
2023-04-08T11:49:46.011Z,4.91
2023-04-08T11:51:02.805Z,5.97
2023-04-08T11:55:00.892Z,5.09
2023-04-08T11:58:29.563Z,3.42
2023-04-08T11:59:55.139Z,3.86
2023-04-08T12:04:47.687Z,4.38
2023-04-08T12:05:28.298Z,7.37
2023-04-08T12:06:24.053Z,5.09
2023-04-08T12:07:01.767Z,5.09
2023-04-08T12:07:51.687Z,4.39
2023-04-08T12:08:28.553Z,4.56
2023-04-08T12:09:58.299Z,5.47
2023-04-08T12:10:45.070Z,4.56
2023-04-08T12:11:31.805Z,4.74
2023-04-08T12:12:13.573Z,5.62
2023-04-08T12:12:59.939Z,7.72
2023-04-08T12:14:00.156Z,3.33
2023-04-08T12:14:30.659Z,3.69
2023-04-08T12:15:16.233Z,4.39
2023-04-08T12:16:09.495Z,3.33
2023-04-08T12:16:43.963Z,2.81
2023-04-08T12:17:31.035Z,3.51
2023-04-08T12:18:24.993Z,3.28
2023-04-08T12:19:01.114Z,5.27
2023-04-08T12:20:04.763Z,6.14
2023-04-08T12:20:34.132Z,4.91
2023-04-08T12:21:13.580Z,3.33
2023-04-08T12:21:59.091Z,4.21
2023-04-08T12:22:44.888Z,4.39
2023-04-08T12:23:29.491Z,5.79
2023-04-08T12:24:16.146Z,4.56
2023-04-08T12:24:59.703Z,4.79
2023-04-08T12:26:29.427Z,6.32
2023-04-08T12:27:20.519Z,4.39
2023-04-08T12:27:59.431Z,3.33
2023-04-08T12:28:44.594Z,4.91
2023-04-08T12:29:29.887Z,3.51
2023-04-08T12:30:16.272Z,3.69
2023-04-08T12:30:59.661Z,4.21
2023-04-08T12:31:45.300Z,5.09
2023-04-08T12:32:30.313Z,3.16
2023-04-08T12:33:15.164Z,7.37
2023-04-08T12:34:00.183Z,4.39
2023-04-08T12:34:47.937Z,4.56
2023-04-08T12:35:37.368Z,4.04
2023-04-08T12:36:15.729Z,4.21
2023-04-08T12:36:59.933Z,4.74
2023-04-08T12:37:45.459Z,4.74
2023-04-08T12:38:30.381Z,3.69
2023-04-08T12:39:15.101Z,5.62
2023-04-08T12:40:00.184Z,4.74
2023-04-08T12:40:45.818Z,5.79
2023-04-08T12:41:35.857Z,5.79
2023-04-08T12:42:16.591Z,2.74
2023-04-08T12:43:01.928Z,4.91
2023-04-08T12:43:45.505Z,4.39
2023-04-08T12:44:35.721Z,4.56
2023-04-08T12:45:15.926Z,4.56
2023-04-08T12:46:00.467Z,4.56
2023-04-08T12:46:45.838Z,3.97
2023-04-08T12:47:36.730Z,4.74
2023-04-08T12:48:28.696Z,4.56
2023-04-08T12:51:28.162Z,3.51
2023-04-08T12:53:43.122Z,1.92
2023-04-08T12:57:22.222Z,3.86
2023-04-08T12:58:09.149Z,4.21
2023-04-08T12:58:47.060Z,5.09
2023-04-08T12:59:36.207Z,5.09
2023-04-08T13:02:45.171Z,4.91
2023-04-08T13:02:49.525Z,4.21
2023-04-08T13:04:06.915Z,6.67
2023-04-08T13:06:26.154Z,5.09
2023-04-08T13:06:26.189Z,8.60
2023-04-08T13:35:26.026Z,4.21
2023-04-08T13:36:52.295Z,2.98
2023-04-08T13:37:37.013Z,4.21
2023-04-08T13:38:21.832Z,3.16
2023-04-08T13:39:07.379Z,2.74
2023-04-08T13:39:57.745Z,5.06
2023-04-08T13:40:36.720Z,2.63
2023-04-08T13:42:10.562Z,5.62
2023-04-08T13:42:56.108Z,3.86
2023-04-08T13:43:36.811Z,4.56
2023-04-08T13:45:10.980Z,3.51
2023-04-08T13:45:58.740Z,4.56
2023-04-08T13:46:40.133Z,3.69
2023-04-08T13:47:25.217Z,4.74
2023-04-08T13:48:10.089Z,6.14
2023-04-08T13:49:40.441Z,3.69
2023-04-08T13:50:25.633Z,4.39
2023-04-08T13:51:10.002Z,4.56
2023-04-08T13:51:55.345Z,6.14
2023-04-08T13:52:40.779Z,3.86
2023-04-08T13:53:25.368Z,5.09
2023-04-08T13:55:46.226Z,3.33
2023-04-08T13:56:26.784Z,4.39
2023-04-08T13:57:15.622Z,6.14
2023-04-08T13:58:06.647Z,3.97
2023-04-08T13:58:55.336Z,3.16
2023-04-08T13:59:26.254Z,3.33
2023-04-08T14:00:15.040Z,6.67
2023-04-08T14:01:47.393Z,3.86
2023-04-08T14:03:03.246Z,4.04
2023-04-08T14:03:16.863Z,4.52
2023-04-08T14:03:55.992Z,3.16
2023-04-08T14:04:52.032Z,4.74
2023-04-08T14:05:33.475Z,5.09
2023-04-08T14:06:11.302Z,2.74
2023-04-08T14:06:56.545Z,5.27
2023-04-08T14:07:42.261Z,4.91
2023-04-08T14:08:28.471Z,5.27
2023-04-08T14:10:26.145Z,3.86
2023-04-08T14:11:38.536Z,2.46
2023-04-08T14:12:13.541Z,3.69
2023-04-08T14:13:01.532Z,5.09
2023-04-08T14:13:52.710Z,4.24
2023-04-08T14:14:28.973Z,7.20
2023-04-08T14:15:12.362Z,5.09
2023-04-08T14:16:09.829Z,4.91
2023-04-08T14:16:46.196Z,2.81
2023-04-08T14:17:26.972Z,2.60
2023-04-08T14:18:12.431Z,4.04
2023-04-08T14:18:57.379Z,4.04
2023-04-08T14:19:42.914Z,4.74
2023-04-08T14:20:27.255Z,4.04
2023-04-08T14:21:12.835Z,3.15
2023-04-08T14:22:05.574Z,3.33
2023-04-08T14:22:42.178Z,3.51
2023-04-08T14:23:30.585Z,3.51
2023-04-08T14:24:15.261Z,3.69
2023-04-08T14:24:57.932Z,2.60
2023-04-08T14:25:42.769Z,4.21
2023-04-08T14:26:30.279Z,3.01
2023-04-08T14:27:12.710Z,4.21
2023-04-08T14:27:58.892Z,6.14
2023-04-08T14:28:47.780Z,3.33
2023-04-08T14:29:27.817Z,3.86
2023-04-08T14:30:13.598Z,2.19
2023-04-08T14:30:58.150Z,3.69
2023-04-08T14:31:49.352Z,4.74
2023-04-08T14:32:42.759Z,2.98
2023-04-08T14:33:19.124Z,4.56
2023-04-08T14:33:58.911Z,3.69
2023-04-08T14:34:45.822Z,4.74
2023-04-08T14:35:28.574Z,3.86
2023-04-08T14:36:13.939Z,3.97
2023-04-08T14:36:58.386Z,4.74
2023-04-08T14:37:55.468Z,7.02
2023-04-08T14:38:42.067Z,4.39
2023-04-08T14:39:13.782Z,4.39
2023-04-08T14:40:03.066Z,5.62
2023-04-08T14:40:49.560Z,4.56
2023-04-08T14:42:13.600Z,4.91
2023-04-08T14:43:19.382Z,4.04
2023-04-08T14:43:45.949Z,3.86
2023-04-08T14:44:38.589Z,5.27
2023-04-08T14:45:18.401Z,5.44
2023-04-08T14:45:59.050Z,6.67
2023-04-08T14:46:46.615Z,5.27
2023-04-08T14:47:29.649Z,5.09
2023-04-08T14:48:14.874Z,5.09
2023-04-08T14:48:59.530Z,4.56
2023-04-08T14:49:44.995Z,3.69
2023-04-08T14:50:32.773Z,6.67
2023-04-08T14:52:09.271Z,4.39
2023-04-08T14:52:52.271Z,5.44
2023-04-08T14:53:30.322Z,3.01
2023-04-08T14:54:19.294Z,5.09
2023-04-08T14:55:01.459Z,4.65
2023-04-08T14:55:44.999Z,4.21
2023-04-08T14:56:32.674Z,5.97
2023-04-08T14:57:14.601Z,6.32
2023-04-08T14:58:01.072Z,4.39
2023-04-08T14:58:45.159Z,2.63
2023-04-08T14:59:30.645Z,4.56
2023-04-08T15:00:15.260Z,6.14
2023-04-08T15:01:00.191Z,4.39
2023-04-08T15:01:45.497Z,3.42
2023-04-08T15:02:30.448Z,2.63
2023-04-08T15:03:15.440Z,4.91
2023-04-08T15:04:03.550Z,4.91
2023-04-08T15:04:45.278Z,3.28
2023-04-08T15:05:30.579Z,4.91
2023-04-08T15:06:15.696Z,4.56
2023-04-08T15:07:00.489Z,4.39
2023-04-08T15:07:47.354Z,3.33
2023-04-08T15:08:47.876Z,3.69
2023-04-08T15:09:16.043Z,5.44
2023-04-08T15:10:00.794Z,4.04
2023-04-08T15:10:52.195Z,3.69
2023-04-08T15:11:35.124Z,3.33
2023-04-08T15:12:23.105Z,3.33
2023-04-08T15:13:05.548Z,2.74
2023-04-08T15:13:59.469Z,3.69
2023-04-08T15:14:42.379Z,3.56
2023-04-08T15:15:28.857Z,2.81
2023-04-08T15:16:14.508Z,4.39
2023-04-08T15:19:17.510Z,5.09
2023-04-08T15:19:47.214Z,3.16
2023-04-08T15:20:32.629Z,2.81
2023-04-08T15:21:19.202Z,4.56
2023-04-08T15:22:01.454Z,4.04
2023-04-08T15:22:49.992Z,4.04
2023-04-08T15:23:32.873Z,5.44
2023-04-08T15:24:17.603Z,3.33
2023-04-08T15:25:12.538Z,4.39
